createdAt,value
2023-03-05T00:01:22.678Z,99417.44
2023-03-05T00:03:52.991Z,99419.75
2023-03-05T00:06:21.490Z,99422.72
2023-03-05T00:08:49.350Z,99414.16
2023-03-05T00:11:17.573Z,99411.69
2023-03-05T00:13:45.602Z,99419.06
2023-03-05T00:16:16.618Z,99414.63
2023-03-05T00:18:46.266Z,99415.69
2023-03-05T00:21:21.792Z,99419.50
2023-03-05T00:23:50.748Z,99408.59
2023-03-05T00:26:19.279Z,99412.31
2023-03-05T00:28:49.926Z,99400.69
2023-03-05T00:31:18.984Z,99410.84
2023-03-05T00:33:47.062Z,99412.56
2023-03-05T00:36:14.902Z,99402.78
2023-03-05T00:38:44.054Z,99407.75
2023-03-05T00:41:12.138Z,99403.72
2023-03-05T00:43:40.051Z,99397.84
2023-03-05T00:46:07.878Z,99399.38
2023-03-05T00:48:35.830Z,99397.13
2023-03-05T00:51:03.741Z,99392.38
2023-03-05T00:53:31.678Z,99388.19
2023-03-05T00:56:00.861Z,99388.13
2023-03-05T00:58:28.756Z,99390.69
2023-03-05T01:00:59.140Z,99381.53
2023-03-05T01:03:27.394Z,99382.47
2023-03-05T01:05:56.800Z,99371.78
2023-03-05T01:08:24.775Z,99378.56
2023-03-05T01:10:53.070Z,99378.69
2023-03-05T01:13:22.458Z,99368.50
2023-03-05T01:15:51.124Z,99371.91
2023-03-05T01:18:19.949Z,99368.75
2023-03-05T01:20:48.741Z,99371.31
2023-03-05T01:23:17.254Z,99367.84
2023-03-05T01:25:45.345Z,99365.38
2023-03-05T01:28:13.360Z,99366.97
2023-03-05T01:30:42.630Z,99369.38
2023-03-05T01:33:10.506Z,99374.41
2023-03-05T01:35:38.487Z,99377.66
2023-03-05T01:38:06.393Z,99370.22
2023-03-05T01:40:34.622Z,99367.81
2023-03-05T01:43:17.151Z,99370.22
2023-03-05T01:46:18.190Z,99371.84
2023-03-05T01:48:51.251Z,99369.44
2023-03-05T01:51:21.190Z,99375.03
2023-03-05T01:53:49.595Z,99372.69
2023-03-05T01:56:18.008Z,99372.63
2023-03-05T01:58:46.324Z,99371.91
2023-03-05T02:01:14.233Z,99378.69
2023-03-05T02:03:43.386Z,99370.47
2023-03-05T02:06:12.706Z,99372.28
2023-03-05T02:08:40.595Z,99365.50
2023-03-05T02:11:09.783Z,99371.53
2023-03-05T02:13:40.713Z,99360.69
2023-03-05T02:16:09.116Z,99371.66
2023-03-05T02:18:37.148Z,99364.34
2023-03-05T02:21:08.049Z,99367.00
2023-03-05T02:23:38.391Z,99366.84
2023-03-05T02:26:08.040Z,99368.47
2023-03-05T02:28:39.975Z,99368.47
2023-03-05T02:31:10.945Z,99370.88
2023-03-05T02:33:38.860Z,99360.91
2023-03-05T02:36:09.613Z,99361.53
2023-03-05T02:38:37.614Z,99360.63
2023-03-05T02:41:06.147Z,99354.09
2023-03-05T02:43:34.077Z,99343.03
2023-03-05T02:46:02.068Z,99349.22
2023-03-05T02:48:30.014Z,99343.34
2023-03-05T02:50:58.782Z,99349.69
2023-03-05T02:53:28.063Z,99345.44
2023-03-05T02:55:55.979Z,99338.38
2023-03-05T02:58:23.938Z,99349.25
2023-03-05T03:00:52.290Z,99328.88
2023-03-05T03:03:20.263Z,99336.94
2023-03-05T03:05:48.156Z,99328.53
2023-03-05T03:08:16.069Z,99345.16
2023-03-05T03:10:45.357Z,99338.50
2023-03-05T03:13:13.291Z,99334.25
2023-03-05T03:15:41.332Z,99330.16
2023-03-05T03:18:09.261Z,99341.47
2023-03-05T03:20:39.227Z,99334.97
2023-03-05T03:23:07.813Z,99334.31
2023-03-05T03:25:36.298Z,99326.19
2023-03-05T03:28:05.653Z,99326.88
2023-03-05T03:30:33.494Z,99322.78
2023-03-05T03:33:01.346Z,99325.34
2023-03-05T03:35:29.347Z,99323.00
2023-03-05T03:37:57.180Z,99317.19
2023-03-05T03:40:25.045Z,99318.94
2023-03-05T03:42:53.094Z,99319.72
2023-03-05T03:45:22.452Z,99324.75
2023-03-05T03:47:50.387Z,99323.78
2023-03-05T03:50:18.446Z,99320.38
2023-03-05T03:52:46.323Z,99314.28
2023-03-05T03:55:15.241Z,99315.84
2023-03-05T03:57:43.746Z,99305.78
2023-03-05T04:00:13.095Z,99316.47
2023-03-05T04:02:42.375Z,99312.91
2023-03-05T04:05:10.746Z,99303.66
2023-03-05T04:07:38.595Z,99307.69
2023-03-05T04:10:07.229Z,99314.19
2023-03-05T04:12:35.117Z,99312.41
2023-03-05T04:15:02.951Z,99315.66
2023-03-05T04:17:30.889Z,99314.66
2023-03-05T04:20:00.235Z,99316.16
2023-03-05T04:22:28.419Z,99311.13
2023-03-05T04:24:56.380Z,99311.97
2023-03-05T04:27:24.280Z,99305.19
2023-03-05T04:29:52.169Z,99308.31
2023-03-05T04:32:23.194Z,99308.72
2023-03-05T04:34:51.509Z,99316.09
2023-03-05T04:37:20.761Z,99306.88
2023-03-05T04:39:48.675Z,99295.59
2023-03-05T04:42:16.483Z,99299.22
2023-03-05T04:44:44.322Z,99300.13
2023-03-05T04:47:12.110Z,99302.47
2023-03-05T04:49:40.015Z,99299.00
2023-03-05T04:52:08.097Z,99290.22
2023-03-05T04:54:37.291Z,99300.25
2023-03-05T04:57:05.981Z,99298.56
2023-03-05T04:59:34.055Z,99295.16
2023-03-05T05:02:02.081Z,99306.75
2023-03-05T05:04:29.985Z,99300.19
2023-03-05T05:06:57.973Z,99296.84
2023-03-05T05:09:26.730Z,99292.69
2023-03-05T05:11:55.943Z,99303.25
2023-03-05T05:14:23.955Z,99295.44
2023-03-05T05:16:51.985Z,99305.78
2023-03-05T05:19:19.912Z,99305.78
2023-03-05T05:21:47.887Z,99301.09
2023-03-05T05:24:15.731Z,99309.22
2023-03-05T05:26:43.610Z,99315.72
2023-03-05T05:29:12.834Z,99299.25
2023-03-05T05:31:40.773Z,99314.25
2023-03-05T05:34:08.691Z,99315.69
2023-03-05T05:36:36.582Z,99309.03
2023-03-05T05:39:04.817Z,99312.97
2023-03-05T05:41:32.697Z,99318.63
2023-03-05T05:44:00.505Z,99318.78
2023-03-05T05:46:29.874Z,99324.72
2023-03-05T05:48:57.798Z,99318.19
2023-03-05T05:51:25.923Z,99316.66
2023-03-05T05:53:54.044Z,99321.50
2023-03-05T05:56:22.041Z,99324.13
2023-03-05T05:58:50.487Z,99314.41
2023-03-05T06:01:21.458Z,99312.53
2023-03-05T06:03:50.922Z,99313.97
2023-03-05T06:06:21.608Z,99335.47
2023-03-05T06:08:50.906Z,99322.44
2023-03-05T06:11:19.722Z,99331.63
2023-03-05T06:13:47.952Z,99338.97
2023-03-05T06:16:17.835Z,99338.28
2023-03-05T06:18:45.790Z,99339.06
2023-03-05T06:21:16.811Z,99342.38
2023-03-05T06:23:45.925Z,99339.06
2023-03-05T06:26:17.239Z,99343.22
2023-03-05T06:28:45.390Z,99344.94
2023-03-05T06:31:15.627Z,99338.44
2023-03-05T06:33:44.571Z,99339.28
2023-03-05T06:36:16.003Z,99340.28
2023-03-05T06:38:44.416Z,99321.19
2023-03-05T06:41:14.521Z,99336.44
2023-03-05T06:43:44.224Z,99328.13
2023-03-05T06:46:14.405Z,99324.84
2023-03-05T06:48:43.208Z,99334.91
2023-03-05T06:51:16.421Z,99332.41
2023-03-05T06:53:44.739Z,99333.19
2023-03-05T06:56:13.997Z,99333.41
2023-03-05T06:58:41.971Z,99326.84
2023-03-05T07:01:09.977Z,99323.88
2023-03-05T07:03:38.431Z,99334.81
2023-03-05T07:06:07.567Z,99335.75
2023-03-05T07:08:37.148Z,99337.44
2023-03-05T07:11:05.539Z,99341.78
2023-03-05T07:13:33.439Z,99336.19
2023-03-05T07:16:05.462Z,99330.53
2023-03-05T07:18:33.425Z,99331.50
2023-03-05T07:21:03.870Z,99336.59
2023-03-05T07:23:31.987Z,99332.34
2023-03-05T07:26:03.508Z,99333.47
2023-03-05T07:28:31.421Z,99340.41
2023-03-05T07:31:00.253Z,99338.56
2023-03-05T07:33:28.893Z,99340.56
2023-03-05T07:35:57.234Z,99342.81
2023-03-05T07:38:25.247Z,99333.75
2023-03-05T07:40:53.138Z,99328.88
2023-03-05T07:43:22.415Z,99320.84
2023-03-05T07:45:51.057Z,99315.53
2023-03-05T07:48:21.424Z,99311.19
2023-03-05T07:50:50.880Z,99317.50
2023-03-05T07:53:19.069Z,99313.47
2023-03-05T07:55:47.968Z,99297.56
2023-03-05T07:58:16.256Z,99308.78
2023-03-05T08:00:45.683Z,99308.00
2023-03-05T08:03:13.496Z,99308.84
2023-03-05T08:05:41.841Z,99317.78
2023-03-05T08:08:10.444Z,99296.25
2023-03-05T08:10:39.092Z,99302.25
2023-03-05T08:13:07.392Z,99304.47
2023-03-05T08:15:35.352Z,99306.09
2023-03-05T08:18:05.225Z,99302.53
2023-03-05T08:20:35.977Z,99302.53
2023-03-05T08:23:04.494Z,99300.81
2023-03-05T08:25:32.495Z,99307.00
2023-03-05T08:28:00.348Z,99307.22
2023-03-05T08:30:28.234Z,99310.47
2023-03-05T08:32:57.387Z,99310.59
2023-03-05T08:35:26.616Z,99309.34
2023-03-05T08:37:54.529Z,99305.38
2023-03-05T08:40:22.509Z,99300.34
2023-03-05T08:42:51.972Z,99305.38
2023-03-05T08:45:19.827Z,99300.28
2023-03-05T08:47:47.729Z,99294.53
2023-03-05T08:50:15.617Z,99304.09
2023-03-05T08:52:45.058Z,99300.22
2023-03-05T08:55:13.522Z,99303.88
2023-03-05T08:57:41.426Z,99301.00
2023-03-05T09:00:12.548Z,99292.84
2023-03-05T09:02:40.535Z,99297.09
2023-03-05T09:05:09.598Z,99292.44
2023-03-05T09:07:38.283Z,99290.97
2023-03-05T09:10:10.297Z,99290.34
2023-03-05T09:12:39.160Z,99291.66
2023-03-05T09:15:09.227Z,99286.50
2023-03-05T09:17:38.525Z,99277.59
2023-03-05T09:20:07.792Z,99278.81
2023-03-05T09:22:35.646Z,99254.19
2023-03-05T09:25:03.553Z,99278.59
2023-03-05T09:27:35.818Z,99275.19
2023-03-05T09:30:04.671Z,99284.25
2023-03-05T09:32:32.600Z,99287.66
2023-03-05T09:35:00.471Z,99287.72
2023-03-05T09:37:29.423Z,99281.25
2023-03-05T09:39:57.682Z,99275.44
2023-03-05T09:42:46.920Z,99289.72
2023-03-05T09:45:23.618Z,99283.78
2023-03-05T09:48:02.313Z,99275.38
2023-03-05T09:50:38.603Z,99281.25
2023-03-05T09:53:17.354Z,99276.28
2023-03-05T09:55:48.351Z,99280.16
2023-03-05T09:58:20.547Z,99279.03
2023-03-05T10:00:51.047Z,99266.31
2023-03-05T10:03:23.846Z,99266.25
2023-03-05T10:06:07.488Z,99270.03
2023-03-05T10:08:47.194Z,99257.31
2023-03-05T10:11:31.406Z,99266.25
2023-03-05T10:14:00.659Z,99267.94
2023-03-05T10:16:56.076Z,99260.69
2023-03-05T10:19:41.827Z,99265.22
2023-03-05T10:22:19.190Z,99254.31
2023-03-05T10:25:01.590Z,99263.09
2023-03-05T10:27:40.776Z,99259.47
2023-03-05T10:30:32.439Z,99266.69
2023-03-05T10:33:13.276Z,99271.97
2023-03-05T10:35:51.567Z,99265.03
2023-03-05T10:38:38.539Z,99265.66
2023-03-05T10:41:17.992Z,99256.81
2023-03-05T10:43:53.409Z,99262.66
2023-03-05T10:46:26.311Z,99256.72
2023-03-05T10:48:58.704Z,99245.78
2023-03-05T10:51:35.139Z,99245.69
2023-03-05T10:54:10.597Z,99234.47
2023-03-05T10:56:38.607Z,99237.03
2023-03-05T10:59:06.524Z,99235.03
2023-03-05T11:01:37.794Z,99232.63
2023-03-05T11:04:08.082Z,99234.88
2023-03-05T11:06:38.807Z,99234.13
2023-03-05T11:09:29.288Z,99232.75
2023-03-05T11:12:13.445Z,99230.09
2023-03-05T11:14:43.944Z,99222.31
2023-03-05T11:17:29.486Z,99220.66
2023-03-05T11:19:58.622Z,99225.31
2023-03-05T11:22:26.958Z,99222.28
2023-03-05T11:25:13.455Z,99220.47
2023-03-05T11:27:51.492Z,99211.31
2023-03-05T11:30:22.460Z,99210.41
2023-03-05T11:32:51.818Z,99208.66
2023-03-05T11:35:34.327Z,99214.88
2023-03-05T11:38:03.492Z,99230.25
2023-03-05T11:40:32.411Z,99228.69
2023-03-05T11:43:02.777Z,99210.69
2023-03-05T11:45:32.807Z,99210.41
2023-03-05T11:48:09.555Z,99212.25
2023-03-05T11:50:42.019Z,99199.81
2023-03-05T11:53:15.755Z,99203.66
2023-03-05T11:55:46.212Z,99195.31
2023-03-05T11:58:27.586Z,99201.19
2023-03-05T12:00:56.014Z,99195.28
2023-03-05T12:03:30.405Z,99200.50
2023-03-05T12:06:03.206Z,99195.66
2023-03-05T12:08:36.270Z,99201.22
2023-03-05T12:11:10.619Z,99187.19
2023-03-05T12:13:43.982Z,99193.59
2023-03-05T12:16:24.348Z,99184.84
2023-03-05T12:19:08.983Z,99186.72
2023-03-05T12:21:39.207Z,99165.66
2023-03-05T12:24:35.608Z,99178.06
2023-03-05T12:27:14.692Z,99187.06
2023-03-05T12:29:49.171Z,99174.25
2023-03-05T12:32:55.830Z,99178.41
2023-03-05T12:35:27.542Z,99162.84
2023-03-05T12:38:26.800Z,99169.59
2023-03-05T12:41:35.714Z,99173.50
2023-03-05T12:44:21.033Z,99159.63
2023-03-05T12:47:17.766Z,99164.47
2023-03-05T12:49:46.927Z,99164.09
2023-03-05T12:52:23.943Z,99157.84
2023-03-05T12:55:15.568Z,99155.56
2023-03-05T12:57:45.109Z,99145.84
2023-03-05T13:00:21.592Z,99142.09
2023-03-05T13:02:55.965Z,99137.59
2023-03-05T13:05:28.070Z,99127.94
2023-03-05T13:08:11.312Z,99130.19
2023-03-05T13:10:40.909Z,99136.78
2023-03-05T13:13:15.864Z,99131.44
2023-03-05T13:15:47.507Z,99134.84
2023-03-05T13:18:21.329Z,99133.03
2023-03-05T13:20:56.178Z,99135.03
2023-03-05T13:23:27.108Z,99126.59
2023-03-05T13:26:00.824Z,99126.78
2023-03-05T13:28:29.134Z,99124.38
2023-03-05T13:30:59.657Z,99138.34
2023-03-05T13:33:30.714Z,99135.59
2023-03-05T13:35:59.065Z,99136.25
2023-03-05T13:38:34.332Z,99132.22
2023-03-05T13:41:07.636Z,99122.16
2023-03-05T13:43:35.615Z,99120.25
2023-03-05T13:46:03.663Z,99105.38
2023-03-05T13:48:31.544Z,99111.56
2023-03-05T13:50:59.818Z,99113.16
2023-03-05T13:53:30.943Z,99106.34
2023-03-05T13:55:59.991Z,99101.25
2023-03-05T13:58:49.330Z,99104.41
2023-03-05T14:01:25.650Z,99098.50
2023-03-05T14:03:56.040Z,99093.47
2023-03-05T14:06:27.178Z,99098.38
2023-03-05T14:09:03.807Z,99099.16
2023-03-05T14:11:31.740Z,99099.75
2023-03-05T14:14:07.617Z,99096.22
2023-03-05T14:16:35.702Z,99091.41
2023-03-05T14:19:07.161Z,99096.34
2023-03-05T14:21:46.926Z,99089.81
2023-03-05T14:24:22.785Z,99092.97
2023-03-05T14:26:53.261Z,99092.84
2023-03-05T14:29:24.398Z,99092.84
2023-03-05T14:31:55.334Z,99082.94
2023-03-05T14:34:27.514Z,99092.59
2023-03-05T14:36:58.799Z,99087.63
2023-03-05T14:39:46.587Z,99085.38
2023-03-05T14:42:26.799Z,99101.00
2023-03-05T14:44:56.522Z,99086.16
2023-03-05T14:47:25.064Z,99089.41
2023-03-05T14:49:53.559Z,99082.84
2023-03-05T14:52:24.060Z,99083.59
2023-03-05T14:54:54.118Z,99076.09
2023-03-05T14:57:24.044Z,99072.22
2023-03-05T14:59:51.934Z,99075.38
2023-03-05T15:02:21.886Z,99069.41
2023-03-05T15:04:50.072Z,99084.19
2023-03-05T15:07:21.445Z,99086.41
2023-03-05T15:09:49.356Z,99084.59
2023-03-05T15:12:19.026Z,99083.72
2023-03-05T15:14:46.915Z,99080.22
2023-03-05T15:17:19.874Z,99080.06
2023-03-05T15:19:48.083Z,99085.75
2023-03-05T15:22:16.537Z,99076.44
2023-03-05T15:24:45.170Z,99073.31
2023-03-05T15:27:14.522Z,99070.22
2023-03-05T15:29:43.850Z,99075.00
2023-03-05T15:32:12.025Z,99078.38
2023-03-05T15:34:39.957Z,99082.44
2023-03-05T15:37:08.046Z,99073.97
2023-03-05T15:39:35.898Z,99078.13
2023-03-05T15:42:06.253Z,99079.03
2023-03-05T15:44:34.322Z,99085.03
2023-03-05T15:47:03.545Z,99081.78
2023-03-05T15:49:31.447Z,99078.75
2023-03-05T15:51:59.692Z,99079.72
2023-03-05T15:54:28.302Z,99079.97
2023-03-05T15:56:56.161Z,99084.00
2023-03-05T15:59:23.984Z,99081.53
2023-03-05T16:01:52.709Z,99079.00
2023-03-05T16:04:21.974Z,99075.84
2023-03-05T16:06:51.340Z,99058.94
2023-03-05T16:09:21.681Z,99068.94
2023-03-05T16:11:51.460Z,99078.88
2023-03-05T16:14:23.751Z,99077.91
2023-03-05T16:16:54.170Z,99071.34
2023-03-05T16:19:24.786Z,99072.91
2023-03-05T16:21:52.710Z,99070.16
2023-03-05T16:24:20.579Z,99070.16
2023-03-05T16:26:48.810Z,99077.53
2023-03-05T16:29:16.724Z,99076.63
2023-03-05T16:31:45.420Z,99079.09
2023-03-05T16:34:16.141Z,99076.69
2023-03-05T16:36:52.089Z,99068.34
2023-03-05T16:39:20.655Z,99072.31
2023-03-05T16:41:48.832Z,99071.47
2023-03-05T16:44:17.061Z,99068.06
2023-03-05T16:46:49.148Z,99073.06
2023-03-05T16:49:17.420Z,99074.78
2023-03-05T16:51:45.261Z,99072.31
2023-03-05T16:54:14.557Z,99072.28
2023-03-05T16:56:42.464Z,99069.81
2023-03-05T16:59:11.555Z,99072.94
2023-03-05T17:01:39.458Z,99065.44
2023-03-05T17:04:08.546Z,99063.03
2023-03-05T17:06:36.547Z,99064.72
2023-03-05T17:09:05.166Z,99064.59
2023-03-05T17:11:34.527Z,99065.19
2023-03-05T17:14:03.993Z,99072.75
2023-03-05T17:16:32.270Z,99077.78
2023-03-05T17:19:00.283Z,99076.06
2023-03-05T17:21:28.216Z,99069.44
2023-03-05T17:23:56.726Z,99076.06
2023-03-05T17:26:24.797Z,99072.69
2023-03-05T17:28:54.847Z,99074.38
2023-03-05T17:31:22.836Z,99074.38
2023-03-05T17:33:50.803Z,99074.38
2023-03-05T17:36:20.770Z,99073.53
2023-03-05T17:38:49.124Z,99073.47
2023-03-05T17:41:18.526Z,99075.94
2023-03-05T17:43:46.851Z,99083.31
2023-03-05T17:46:16.961Z,99080.75
2023-03-05T17:48:45.211Z,99083.88
2023-03-05T17:51:16.285Z,99078.91
2023-03-05T17:53:46.014Z,99078.84
2023-03-05T17:56:15.971Z,99084.63
2023-03-05T17:58:44.207Z,99090.31
2023-03-05T18:01:12.198Z,99083.41
2023-03-05T18:03:41.442Z,99079.22
2023-03-05T18:06:09.360Z,99080.13
2023-03-05T18:08:37.273Z,99071.94
2023-03-05T18:11:05.399Z,99066.19
2023-03-05T18:13:33.298Z,99052.13
2023-03-05T18:16:01.694Z,99071.28
2023-03-05T18:18:30.346Z,99065.47
2023-03-05T18:20:59.662Z,99073.75
2023-03-05T18:23:27.593Z,99068.81
2023-03-05T18:25:55.449Z,99067.97
2023-03-05T18:28:25.680Z,99077.78
2023-03-05T18:30:54.445Z,99067.81
2023-03-05T18:33:24.483Z,99063.59
2023-03-05T18:35:53.534Z,99065.41
2023-03-05T18:38:24.956Z,99067.25
2023-03-05T18:40:53.917Z,99068.94
2023-03-05T18:43:23.728Z,99073.81
2023-03-05T18:45:53.695Z,99069.53
2023-03-05T18:48:22.184Z,99069.66
2023-03-05T18:50:51.495Z,99058.00
2023-03-05T18:53:20.121Z,99054.66
2023-03-05T18:55:51.311Z,99047.19
2023-03-05T18:58:20.236Z,99055.97
2023-03-05T19:00:49.636Z,99052.00
2023-03-05T19:03:18.527Z,99043.00
2023-03-05T19:05:47.265Z,99042.34
2023-03-05T19:08:15.166Z,99041.78
2023-03-05T19:10:43.133Z,99037.47
2023-03-05T19:13:40.895Z,99035.84
2023-03-05T19:16:11.204Z,99040.78
2023-03-05T19:18:57.930Z,99041.72
2023-03-05T19:21:31.643Z,99040.91
2023-03-05T19:23:59.575Z,99040.06
2023-03-05T19:26:27.668Z,99039.22
2023-03-05T19:28:56.998Z,99040.91
2023-03-05T19:31:25.029Z,99038.44
2023-03-05T19:33:52.987Z,99031.97
2023-03-05T19:36:21.140Z,99029.69
2023-03-05T19:38:49.759Z,99024.78
2023-03-05T19:41:19.455Z,99027.97
2023-03-05T19:43:49.177Z,99029.56
2023-03-05T19:46:19.171Z,99033.59
2023-03-05T19:48:47.567Z,99024.38
2023-03-05T19:51:17.675Z,99025.81
2023-03-05T19:53:45.912Z,99019.16
2023-03-05T19:56:15.809Z,99019.28
2023-03-05T19:58:45.477Z,99011.88
2023-03-05T20:01:15.472Z,99009.41
2023-03-05T20:03:48.804Z,99002.63
2023-03-05T20:06:17.176Z,99023.97
2023-03-05T20:08:45.497Z,99027.84
2023-03-05T20:11:15.119Z,99026.75
2023-03-05T20:13:44.061Z,99034.03
2023-03-05T20:16:16.906Z,99036.38
2023-03-05T20:18:46.733Z,99037.03
2023-03-05T20:21:21.392Z,99032.06
2023-03-05T20:23:49.732Z,99033.53
2023-03-05T20:26:17.570Z,99033.53
2023-03-05T20:28:45.647Z,99035.88
2023-03-05T20:31:13.695Z,99029.09
2023-03-05T20:33:41.728Z,99030.53
2023-03-05T20:36:11.304Z,99024.66
2023-03-05T20:38:39.325Z,99020.38
2023-03-05T20:41:09.639Z,99014.72
2023-03-05T20:43:40.817Z,99023.66
2023-03-05T20:46:16.132Z,99018.75
2023-03-05T20:48:44.163Z,99016.22
2023-03-05T20:51:14.820Z,99017.06
2023-03-05T20:53:43.113Z,99011.28
2023-03-05T20:56:11.171Z,99015.31
2023-03-05T20:58:39.146Z,99011.06
2023-03-05T21:01:07.506Z,98998.78
2023-03-05T21:03:37.125Z,98996.44
2023-03-05T21:06:06.311Z,98980.03
2023-03-05T21:08:35.604Z,98981.91
2023-03-05T21:11:06.627Z,98977.16
2023-03-05T21:13:34.829Z,98976.38
2023-03-05T21:16:07.086Z,98959.84
2023-03-05T21:18:35.206Z,98959.34
2023-03-05T21:21:03.335Z,98961.69
2023-03-05T21:23:31.195Z,98954.84
2023-03-05T21:26:00.500Z,98964.16
2023-03-05T21:28:29.480Z,98981.06
2023-03-05T21:30:57.928Z,98972.84
2023-03-05T21:33:28.229Z,98981.91
2023-03-05T21:35:58.096Z,98971.06
2023-03-05T21:38:29.888Z,98982.56
2023-03-05T21:41:00.683Z,98982.50
2023-03-05T21:43:29.119Z,98987.53
2023-03-05T21:45:57.713Z,98969.81
2023-03-05T21:48:25.851Z,98974.03
2023-03-05T21:50:55.098Z,98980.47
2023-03-05T21:53:23.625Z,98971.31
2023-03-05T21:56:26.387Z,98972.94
2023-03-05T21:58:54.818Z,98965.56
2023-03-05T22:01:22.918Z,98969.53
2023-03-05T22:03:51.375Z,98953.63
2023-03-05T22:06:20.476Z,98964.59
2023-03-05T22:08:48.394Z,98967.00
2023-03-05T22:11:19.226Z,98962.84
2023-03-05T22:13:47.105Z,98961.09
2023-03-05T22:16:22.888Z,98953.63
2023-03-05T22:18:50.758Z,98959.47
2023-03-05T22:21:20.717Z,98956.75
2023-03-05T22:23:49.733Z,98965.06
2023-03-05T22:26:19.001Z,98956.81
2023-03-05T22:28:47.230Z,98965.06
2023-03-05T22:31:21.930Z,98961.81
2023-03-05T22:33:50.570Z,98961.94
2023-03-05T22:36:18.972Z,98958.69
2023-03-05T22:38:47.559Z,98958.72
2023-03-05T22:41:17.217Z,98944.66
2023-03-05T22:43:47.135Z,98956.31
2023-03-05T22:46:17.160Z,98955.41
2023-03-05T22:48:45.996Z,98948.81
2023-03-05T22:51:14.589Z,98950.47
2023-03-05T22:53:42.810Z,98944.56
2023-03-05T22:56:13.460Z,98953.75
2023-03-05T22:58:41.783Z,98948.13
2023-03-05T23:01:15.258Z,98947.47
2023-03-05T23:04:02.707Z,98939.16
2023-03-05T23:06:48.479Z,98948.25
2023-03-05T23:09:16.611Z,98949.03
2023-03-05T23:11:44.554Z,98950.66
2023-03-05T23:14:12.758Z,98950.72
2023-03-05T23:16:41.926Z,98939.75
2023-03-05T23:19:09.758Z,98948.91
2023-03-05T23:21:37.618Z,98958.69
2023-03-05T23:24:05.992Z,98952.72
2023-03-05T23:26:33.912Z,98956.75
2023-03-05T23:29:01.813Z,98954.06
2023-03-05T23:31:29.634Z,98954.00
2023-03-05T23:33:59.513Z,98947.28
2023-03-05T23:36:27.508Z,98950.53
2023-03-05T23:38:58.021Z,98952.22
2023-03-05T23:41:25.900Z,98953.75
2023-03-05T23:43:53.796Z,98959.47
2023-03-05T23:46:21.701Z,98943.09
2023-03-05T23:48:49.671Z,98946.34
2023-03-05T23:51:19.068Z,98948.03
2023-03-05T23:53:48.320Z,98943.09
2023-03-05T23:56:16.212Z,98941.38
2023-03-05T23:58:44.022Z,98942.94
